Time;durP1;ratioP1;P1;durP2;ratioP2;P2;SDS_P1;SDS_P2;PMS_P1;PMS_P2;Temp;Humidity;BMP_temperature;BMP_pressure;BME280_temperature;BME280_humidity;BME280_pressure;Samples;Min_cycle;Max_cycle;Signal;HPM_P1;HPM_P2
2023/08/19 05:19:35;;;;;;;;;;;;;;;;;;4969622;28;20312;-43
2023/08/19 05:22:01;;;;;;;;;;;;;;;;;;4971637;28;19922;-43
2023/08/19 05:24:27;;;;;;;;;;;;;;;;;;4971661;28;19918;-43
2023/08/19 05:26:53;;;;;;;;;;;;;;;;;;4971543;28;20376;-45
2023/08/19 05:29:19;;;;;;;;;;;;;;;;;;4971812;28;19910;-44
2023/08/19 05:31:45;;;;;;;;;;;;;;;;;;4971272;28;19910;-44
2023/08/19 05:34:11;;;;;;;;;;;;;;;;;;4971739;28;19956;-45
2023/08/19 05:36:37;;;;;;;;;;;;;;;;;;4971398;28;20008;-44
2023/08/19 05:39:03;;;;;;;;;;;;;;;;;;4971308;28;20029;-46
2023/08/19 05:41:29;;;;;;;;;;;;;;;;;;4971794;28;20045;-46
2023/08/19 05:43:55;;;;;;;;;;;;;;;;;;4971391;28;20489;-43
2023/08/19 05:46:21;;;;;;;;;;;;;;;;;;4969783;28;19919;-46
2023/08/19 05:48:46;;;;;;;;;;;;;;;;;;4971399;28;19914;-42
2023/08/19 05:51:12;;;;;;;;;;;;;;;;;;4971312;28;19945;-45
2023/08/19 05:53:38;;;;;;;;;;;;;;;;;;4971128;28;19914;-45
2023/08/19 05:56:04;;;;;;;;;;;;;;;;;;4971114;28;20269;-43
2023/08/19 05:58:30;;;;;;;;;;;;;;;;;;4971098;28;19950;-47
2023/08/19 06:00:56;;;;;;;;;;;;;;;;;;4970960;28;19910;-45
2023/08/19 06:03:22;;;;;;;;;;;;;;;;;;4971057;28;19910;-44
2023/08/19 06:05:47;;;;;;;;;;;;;;;;;;4971078;28;19910;-46
2023/08/19 06:08:14;;;;;;;;;;;;;;;;;;4970691;28;19910;-43
2023/08/19 06:10:43;;;;;;;;;;;;;;;;;;4970830;28;20442;-44
2023/08/19 06:13:09;;;;;;;;;;;;;;;;;;4969491;28;19955;-46
2023/08/19 06:15:35;;;;;;;;;;;;;;;;;;4970851;28;20316;-44
2023/08/19 06:18:01;;;;;;;;;;;;;;;;;;4970802;28;19915;-44
2023/08/19 06:20:27;;;;;;;;;;;;;;;;;;4970833;28;19914;-47
2023/08/19 06:22:53;;;;;;;;;;;;;;;;;;4970605;28;21095;-43
2023/08/19 06:25:19;;;;;;;;;;;;;;;;;;4970741;28;19918;-43
2023/08/19 06:27:45;;;;;;;;;;;;;;;;;;4970464;28;19910;-47
2023/08/19 06:30:11;;;;;;;;;;;;;;;;;;4969271;28;20008;-44
2023/08/19 06:32:37;;;;;;;;;;;;;;;;;;4970487;28;19918;-46
2023/08/19 06:35:03;;;;;;;;;;;;;;;;;;4981634;28;19916;-44
2023/08/19 06:37:29;;;;;;;;;;;;;;;;;;4991184;28;19916;-48
2023/08/19 06:39:55;;;;;;;;;;;;;;;;;;4989997;28;19918;-47
2023/08/19 06:42:21;;;;;;;;;;;;;;;;;;4974744;28;19910;-45
2023/08/19 06:44:47;;;;;;;;;;;;;;;;;;4971092;28;20401;-49
2023/08/19 06:47:12;;;;;;;;;;;;;;;;;;4971557;28;19921;-49
2023/08/19 06:49:38;;;;;;;;;;;;;;;;;;4971512;28;19917;-49
2023/08/19 06:52:04;;;;;;;;;;;;;;;;;;4977163;28;20004;-46
2023/08/19 06:54:30;;;;;;;;;;;;;;;;;;4984301;28;20607;-47
2023/08/19 06:56:56;;;;;;;;;;;;;;;;;;4991050;28;19913;-48
2023/08/19 06:59:22;;;;;;;;;;;;;;;;;;4990554;28;20369;-48
2023/08/19 07:01:48;;;;;;;;;;;;;;;;;;4991134;28;19909;-44
2023/08/19 07:04:14;;;;;;;;;;;;;;;;;;4990483;28;20277;-44
2023/08/19 07:06:40;;;;;;;;;;;;;;;;;;4990902;28;19914;-48
2023/08/19 07:09:05;;;;;;;;;;;;;;;;;;4990812;28;20380;-44
2023/08/19 07:11:31;;;;;;;;;;;;;;;;;;4973965;28;19914;-48
2023/08/19 07:13:57;;;;;;;;;;;;;;;;;;4989412;28;19945;-47
2023/08/19 07:16:23;;;;;;;;;;;;;;;;;;4988407;28;20016;-47
2023/08/19 07:18:49;;;;;;;;;;;;;;;;;;4985521;28;19961;-50
2023/08/19 07:21:15;;;;;;;;;;;;;;;;;;4989433;28;20222;-48
2023/08/19 07:23:41;;;;;;;;;;;;;;;;;;4985995;28;20549;-48
2023/08/19 07:26:07;;;;;;;;;;;;;;;;;;4987878;28;19918;-47
2023/08/19 07:28:33;;;;;;;;;;;;;;;;;;4987785;28;19941;-48
2023/08/19 07:30:59;;;;;;;;;;;;;;;;;;4988956;28;20012;-45
2023/08/19 07:33:25;;;;;;;;;;;;;;;;;;4988794;28;20009;-46
2023/08/19 07:35:51;;;;;;;;;;;;;;;;;;4988780;28;20542;-47
2023/08/19 07:38:17;;;;;;;;;;;;;;;;;;4984626;28;19925;-49
2023/08/19 07:40:43;;;;;;;;;;;;;;;;;;4986290;28;20277;-46
2023/08/19 07:43:09;;;;;;;;;;;;;;;;;;4989331;28;20299;-49
2023/08/19 07:45:35;;;;;;;;;;;;;;;;;;4988989;28;19917;-46
2023/08/19 07:48:01;;;;;;;;;;;;;;;;;;4989718;28;19933;-47
2023/08/19 07:50:27;;;;;;;;;;;;;;;;;;4991055;28;20376;-47
2023/08/19 07:52:53;;;;;;;;;;;;;;;;;;4991038;28;19914;-45
2023/08/19 07:55:18;;;;;;;;;;;;;;;;;;4991175;28;20364;-48
2023/08/19 07:57:44;;;;;;;;;;;;;;;;;;4990795;28;19932;-44
2023/08/19 08:00:10;;;;;;;;;;;;;;;;;;4991921;28;20272;-45
2023/08/19 08:02:36;;;;;;;;;;;;;;;;;;4991028;28;20025;-46
2023/08/19 08:05:02;;;;;;;;;;;;;;;;;;4990798;28;20388;-45
2023/08/19 08:07:28;;;;;;;;;;;;;;;;;;4990779;28;19913;-46
2023/08/19 08:09:54;;;;;;;;;;;;;;;;;;4990659;28;20386;-46
2023/08/19 08:12:20;;;;;;;;;;;;;;;;;;4990659;28;19914;-46
2023/08/19 08:14:46;;;;;;;;;;;;;;;;;;4990362;28;19961;-49
2023/08/19 08:17:11;;;;;;;;;;;;;;;;;;4991424;28;19916;-47
2023/08/19 08:19:38;;;;;;;;;;;;;;;;;;4990112;28;19972;-45
2023/08/19 08:22:04;;;;;;;;;;;;;;;;;;4990531;28;19952;-47
2023/08/19 08:24:30;;;;;;;;;;;;;;;;;;4990412;28;19953;-45
2023/08/19 08:26:56;;;;;;;;;;;;;;;;;;4990051;28;19909;-44
2023/08/19 08:29:22;;;;;;;;;;;;;;;;;;4990536;28;19917;-46
2023/08/19 08:31:48;;;;;;;;;;;;;;;;;;4990253;28;19909;-43
2023/08/19 08:34:13;;;;;;;;;;;;;;;;;;4990956;28;19992;-44
2023/08/19 08:36:39;;;;;;;;;;;;;;;;;;4990738;28;20008;-44
2023/08/19 08:39:05;;;;;;;;;;;;;;;;;;4989942;28;19922;-46
2023/08/19 08:41:31;;;;;;;;;;;;;;;;;;4990160;28;19910;-46
2023/08/19 08:43:57;;;;;;;;;;;;;;;;;;4990022;28;19920;-47
2023/08/19 08:46:23;;;;;;;;;;;;;;;;;;4990264;28;20423;-47
2023/08/19 08:48:49;;;;;;;;;;;;;;;;;;4988513;28;19916;-46
2023/08/19 08:51:14;;;;;;;;;;;;;;;;;;4990828;28;19914;-44
2023/08/19 08:53:40;;;;;;;;;;;;;;;;;;4990496;28;19914;-48
2023/08/19 08:56:06;;;;;;;;;;;;;;;;;;4989773;28;20012;-44
2023/08/19 08:58:32;;;;;;;;;;;;;;;;;;4989386;28;20376;-45
2023/08/19 09:00:58;;;;;;;;;;;;;;;;;;4989961;28;19910;-48
2023/08/19 09:03:24;;;;;;;;;;;;;;;;;;4989797;28;20277;-44
2023/08/19 09:05:50;;;;;;;;;;;;;;;;;;4989710;28;19953;-45
2023/08/19 09:08:17;;;;;;;;;;;;;;;;;;4989832;28;19909;-43
2023/08/19 09:10:43;;;;;;;;;;;;;;;;;;4989848;28;19937;-46
2023/08/19 09:13:09;;;;;;;;;;;;;;;;;;4989772;28;19960;-45
2023/08/19 09:15:35;;;;;;;;;;;;;;;;;;4988270;28;19910;-46
2023/08/19 09:18:01;;;;;;;;;;;;;;;;;;4989609;28;20368;-43
2023/08/19 09:20:27;;;;;;;;;;;;;;;;;;4989357;28;19914;-46
2023/08/19 09:22:52;;;;;;;;;;;;;;;;;;4990246;28;19910;-45
2023/08/19 09:25:18;;;;;;;;;;;;;;;;;;4989239;28;19953;-46
2023/08/19 09:27:46;;;;;;;;;;;;;;;;;;4989294;28;19913;-46
2023/08/19 09:30:12;;;;;;;;;;;;;;;;;;4989216;28;20004;-46
2023/08/19 09:32:39;;;;;;;;;;;;;;;;;;4989150;28;20400;-44
2023/08/19 09:35:05;;;;;;;;;;;;;;;;;;4988932;28;19910;-45
2023/08/19 09:37:30;;;;;;;;;;;;;;;;;;4989057;28;20411;-47
2023/08/19 09:39:56;;;;;;;;;;;;;;;;;;4988926;28;20007;-44
2023/08/19 09:42:22;;;;;;;;;;;;;;;;;;4989601;28;20277;-48
2023/08/19 09:44:48;;;;;;;;;;;;;;;;;;4989076;28;19909;-45
2023/08/19 09:47:14;;;;;;;;;;;;;;;;;;4989061;28;20309;-45
2023/08/19 09:49:40;;;;;;;;;;;;;;;;;;4988856;28;20008;-47
2023/08/19 09:52:06;;;;;;;;;;;;;;;;;;4988910;28;19918;-45
2023/08/19 09:54:32;;;;;;;;;;;;;;;;;;4988770;28;20300;-44
2023/08/19 09:56:58;;;;;;;;;;;;;;;;;;4988677;28;19910;-44
2023/08/19 09:59:24;;;;;;;;;;;;;;;;;;4989801;28;20353;-45
2023/08/19 10:01:51;;;;;;;;;;;;;;;;;;4988651;28;19940;-46
2023/08/19 10:04:17;;;;;;;;;;;;;;;;;;4988670;28;19910;-46
2023/08/19 10:06:43;;;;;;;;;;;;;;;;;;4988632;28;19916;-45
2023/08/19 10:09:09;;;;;;;;;;;;;;;;;;4988448;28;19910;-48
2023/08/19 10:11:35;;;;;;;;;;;;;;;;;;4987953;28;19910;-44
2023/08/19 10:14:01;;;;;;;;;;;;;;;;;;4988363;28;19914;-44
2023/08/19 10:16:27;;;;;;;;;;;;;;;;;;4988355;28;19932;-45
2023/08/19 10:18:53;;;;;;;;;;;;;;;;;;4988756;28;19918;-48
2023/08/19 10:21:18;;;;;;;;;;;;;;;;;;4988221;28;19910;-47
2023/08/19 10:23:45;;;;;;;;;;;;;;;;;;4988486;28;19910;-45
2023/08/19 10:26:10;;;;;;;;;;;;;;;;;;4988098;28;20351;-43
2023/08/19 10:28:36;;;;;;;;;;;;;;;;;;4988454;28;20016;-45
2023/08/19 10:31:02;;;;;;;;;;;;;;;;;;4987942;28;19910;-47
2023/08/19 10:33:32;;;;;;;;;;;;;;;;;;4988523;28;19913;-46
2023/08/19 10:36:01;;;;;;;;;;;;;;;;;;4987855;28;20381;-44
2023/08/19 10:38:26;;;;;;;;;;;;;;;;;;4988408;28;19914;-43
2023/08/19 10:40:52;;;;;;;;;;;;;;;;;;4988788;28;19964;-48
2023/08/19 10:43:18;;;;;;;;;;;;;;;;;;4988666;28;19945;-44
2023/08/19 10:45:47;;;;;;;;;;;;;;;;;;4987886;28;20289;-46
2023/08/19 10:48:14;;;;;;;;;;;;;;;;;;4986777;28;20300;-48
2023/08/19 10:50:40;;;;;;;;;;;;;;;;;;4988026;28;19910;-46
2023/08/19 10:53:07;;;;;;;;;;;;;;;;;;4988111;28;19914;-46
2023/08/19 10:55:33;;;;;;;;;;;;;;;;;;4988024;28;19910;-45
2023/08/19 10:57:58;;;;;;;;;;;;;;;;;;4988087;28;20294;-45
2023/08/19 11:00:24;;;;;;;;;;;;;;;;;;4988677;28;19952;-46
2023/08/19 11:02:50;;;;;;;;;;;;;;;;;;4987928;28;20522;-45
2023/08/19 11:05:16;;;;;;;;;;;;;;;;;;4987972;28;19920;-44
2023/08/19 11:07:42;;;;;;;;;;;;;;;;;;4987958;28;19910;-48
2023/08/19 11:10:08;;;;;;;;;;;;;;;;;;4988146;28;19910;-46
2023/08/19 11:12:35;;;;;;;;;;;;;;;;;;4987992;28;20335;-47
2023/08/19 11:15:00;;;;;;;;;;;;;;;;;;4987664;28;20411;-45
2023/08/19 11:17:26;;;;;;;;;;;;;;;;;;4988158;28;19914;-45
2023/08/19 11:19:52;;;;;;;;;;;;;;;;;;4987172;28;19918;-44
2023/08/19 11:22:20;;;;;;;;;;;;;;;;;;4990156;28;20000;-45
2023/08/19 11:24:46;;;;;;;;;;;;;;;;;;4990343;28;19933;-43
2023/08/19 11:27:12;;;;;;;;;;;;;;;;;;4991251;28;20448;-45
2023/08/19 11:29:38;;;;;;;;;;;;;;;;;;4991436;28;19937;-44
2023/08/19 11:32:04;;;;;;;;;;;;;;;;;;4992001;28;19917;-48
2023/08/19 11:34:30;;;;;;;;;;;;;;;;;;4991206;28;20320;-48
2023/08/19 11:36:56;;;;;;;;;;;;;;;;;;4991366;28;19941;-48
2023/08/19 11:39:22;;;;;;;;;;;;;;;;;;4991407;28;19957;-46
2023/08/19 11:41:48;;;;;;;;;;;;;;;;;;4991053;28;20536;-48
2023/08/19 11:44:14;;;;;;;;;;;;;;;;;;4991230;28;19955;-45
2023/08/19 11:46:40;;;;;;;;;;;;;;;;;;4991294;28;19946;-48
2023/08/19 11:49:06;;;;;;;;;;;;;;;;;;4991725;28;20339;-46
2023/08/19 11:51:31;;;;;;;;;;;;;;;;;;4990922;28;20000;-44
2023/08/19 11:53:57;;;;;;;;;;;;;;;;;;4991281;28;19914;-48
2023/08/19 11:56:23;;;;;;;;;;;;;;;;;;4990819;28;20134;-48
2023/08/19 11:58:49;;;;;;;;;;;;;;;;;;4990947;28;19914;-46
2023/08/19 12:01:15;;;;;;;;;;;;;;;;;;4990840;28;19910;-47
2023/08/19 12:03:41;;;;;;;;;;;;;;;;;;4990908;28;19910;-47
2023/08/19 12:06:07;;;;;;;;;;;;;;;;;;4991428;28;20378;-47
2023/08/19 12:08:33;;;;;;;;;;;;;;;;;;4990734;28;19910;-45
2023/08/19 12:10:59;;;;;;;;;;;;;;;;;;4990675;28;20017;-47
2023/08/19 12:13:27;;;;;;;;;;;;;;;;;;4990834;28;19976;-45
2023/08/19 12:15:53;;;;;;;;;;;;;;;;;;4990689;28;19949;-48
2023/08/19 12:18:18;;;;;;;;;;;;;;;;;;4990443;28;19964;-45
2023/08/19 12:20:44;;;;;;;;;;;;;;;;;;4990799;28;19910;-48
2023/08/19 12:23:10;;;;;;;;;;;;;;;;;;4990849;28;19910;-45
2023/08/19 12:25:36;;;;;;;;;;;;;;;;;;4991187;28;19945;-48
2023/08/19 12:28:03;;;;;;;;;;;;;;;;;;4990452;28;19910;-47
2023/08/19 12:30:29;;;;;;;;;;;;;;;;;;4990615;28;19910;-46
2023/08/19 12:32:55;;;;;;;;;;;;;;;;;;4989379;28;19913;-47
2023/08/19 12:35:21;;;;;;;;;;;;;;;;;;4990363;28;19910;-48
2023/08/19 12:37:47;;;;;;;;;;;;;;;;;;4990318;28;20391;-47
2023/08/19 12:40:13;;;;;;;;;;;;;;;;;;4989977;28;19910;-45
2023/08/19 12:42:39;;;;;;;;;;;;;;;;;;4990641;28;19981;-48
2023/08/19 12:45:05;;;;;;;;;;;;;;;;;;4990160;28;19909;-46
2023/08/19 12:47:31;;;;;;;;;;;;;;;;;;4989799;28;20396;-45
2023/08/19 12:49:57;;;;;;;;;;;;;;;;;;4988755;28;19914;-47
2023/08/19 12:52:23;;;;;;;;;;;;;;;;;;4989649;28;19920;-45
2023/08/19 12:54:49;;;;;;;;;;;;;;;;;;4990172;28;19917;-48
2023/08/19 12:57:14;;;;;;;;;;;;;;;;;;4989760;28;19914;-47
2023/08/19 12:59:40;;;;;;;;;;;;;;;;;;4990422;28;19910;-47
2023/08/19 13:02:06;;;;;;;;;;;;;;;;;;4990316;28;20312;-45
2023/08/19 13:04:33;;;;;;;;;;;;;;;;;;4989804;28;20004;-44
2023/08/19 13:06:59;;;;;;;;;;;;;;;;;;4989591;28;19916;-44
2023/08/19 13:09:25;;;;;;;;;;;;;;;;;;4989575;28;20004;-45
2023/08/19 13:11:51;;;;;;;;;;;;;;;;;;4989855;28;20385;-44
2023/08/19 13:14:17;;;;;;;;;;;;;;;;;;4989621;28;19917;-47
2023/08/19 13:16:43;;;;;;;;;;;;;;;;;;4989352;28;20301;-44
2023/08/19 13:19:09;;;;;;;;;;;;;;;;;;4990033;28;19926;-44
2023/08/19 13:21:35;;;;;;;;;;;;;;;;;;4989376;28;20515;-45
2023/08/19 13:24:00;;;;;;;;;;;;;;;;;;4989524;28;19910;-46
2023/08/19 13:26:26;;;;;;;;;;;;;;;;;;4989366;28;20427;-47
2023/08/19 13:28:52;;;;;;;;;;;;;;;;;;4989252;28;19917;-47
2023/08/19 13:31:18;;;;;;;;;;;;;;;;;;4989167;28;19909;-46
2023/08/19 13:33:44;;;;;;;;;;;;;;;;;;4989255;28;19917;-47
2023/08/19 13:36:10;;;;;;;;;;;;;;;;;;4989795;28;20274;-44
2023/08/19 13:38:36;;;;;;;;;;;;;;;;;;4988630;28;19910;-46
2023/08/19 13:41:03;;;;;;;;;;;;;;;;;;4989118;28;19910;-47
2023/08/19 13:43:28;;;;;;;;;;;;;;;;;;4987543;28;19910;-45
2023/08/19 13:45:54;;;;;;;;;;;;;;;;;;4989117;28;20270;-45
2023/08/19 13:48:20;;;;;;;;;;;;;;;;;;4986829;28;19914;-46
2023/08/19 13:50:46;;;;;;;;;;;;;;;;;;4988335;28;19917;-48
2023/08/19 13:53:12;;;;;;;;;;;;;;;;;;4990187;28;19913;-43
2023/08/19 13:55:38;;;;;;;;;;;;;;;;;;4990045;28;19996;-49
2023/08/19 13:58:04;;;;;;;;;;;;;;;;;;4989041;28;19941;-47
2023/08/19 14:00:30;;;;;;;;;;;;;;;;;;4990215;28;19952;-47
2023/08/19 14:02:56;;;;;;;;;;;;;;;;;;4989333;28;20307;-47
2023/08/19 14:05:21;;;;;;;;;;;;;;;;;;4990075;28;20441;-49
2023/08/19 14:07:47;;;;;;;;;;;;;;;;;;4987166;28;19914;-45
2023/08/19 14:10:13;;;;;;;;;;;;;;;;;;4988276;28;20274;-47
2023/08/19 14:12:39;;;;;;;;;;;;;;;;;;4989505;28;19917;-46
2023/08/19 14:15:08;;;;;;;;;;;;;;;;;;4988343;28;20306;-48
2023/08/19 14:17:33;;;;;;;;;;;;;;;;;;4987611;28;19917;-46
2023/08/19 14:19:59;;;;;;;;;;;;;;;;;;4988725;28;19925;-44
2023/08/19 14:22:25;;;;;;;;;;;;;;;;;;4987758;28;19914;-47
2023/08/19 14:24:51;;;;;;;;;;;;;;;;;;4988749;28;19910;-47
2023/08/19 14:27:17;;;;;;;;;;;;;;;;;;4988391;28;20432;-47
2023/08/19 14:29:43;;;;;;;;;;;;;;;;;;4988851;28;19916;-44
2023/08/19 14:32:09;;;;;;;;;;;;;;;;;;4989175;28;19918;-46
2023/08/19 14:34:34;;;;;;;;;;;;;;;;;;4988141;28;19913;-47
2023/08/19 14:37:02;;;;;;;;;;;;;;;;;;4988387;28;20000;-43
2023/08/19 14:39:28;;;;;;;;;;;;;;;;;;4987986;28;20343;-48
2023/08/19 14:41:54;;;;;;;;;;;;;;;;;;4988312;28;20004;-45
2023/08/19 14:44:20;;;;;;;;;;;;;;;;;;4988171;28;20061;-48
2023/08/19 14:46:46;;;;;;;;;;;;;;;;;;4988345;28;20412;-48
2023/08/19 14:49:12;;;;;;;;;;;;;;;;;;4988599;28;19909;-45
2023/08/19 14:51:38;;;;;;;;;;;;;;;;;;4988141;28;19992;-49
2023/08/19 14:54:04;;;;;;;;;;;;;;;;;;4988211;28;20635;-49
2023/08/19 14:56:30;;;;;;;;;;;;;;;;;;4989300;28;20424;-48
2023/08/19 14:58:56;;;;;;;;;;;;;;;;;;4992066;28;20012;-48
2023/08/19 15:01:22;;;;;;;;;;;;;;;;;;4992120;28;20061;-48
2023/08/19 15:03:48;;;;;;;;;;;;;;;;;;4991930;28;19910;-47
2023/08/19 15:06:15;;;;;;;;;;;;;;;;;;4992655;28;19913;-48
2023/08/19 15:08:40;;;;;;;;;;;;;;;;;;4992593;28;19924;-46
2023/08/19 15:11:06;;;;;;;;;;;;;;;;;;4992066;28;20008;-44
2023/08/19 15:13:32;;;;;;;;;;;;;;;;;;4991625;28;19914;-46
2023/08/19 15:15:58;;;;;;;;;;;;;;;;;;4991817;28;19910;-44
2023/08/19 15:18:24;;;;;;;;;;;;;;;;;;4991543;28;19924;-49
2023/08/19 15:20:50;;;;;;;;;;;;;;;;;;4991860;28;19910;-45
2023/08/19 15:23:16;;;;;;;;;;;;;;;;;;4991888;28;19913;-43
2023/08/19 15:25:42;;;;;;;;;;;;;;;;;;4992562;28;19909;-47
2023/08/19 15:28:08;;;;;;;;;;;;;;;;;;4991334;28;19914;-49
2023/08/19 15:30:34;;;;;;;;;;;;;;;;;;4991646;28;19917;-45
2023/08/19 15:33:00;;;;;;;;;;;;;;;;;;4991532;28;20308;-47
2023/08/19 15:35:26;;;;;;;;;;;;;;;;;;4991412;28;19979;-47
2023/08/19 15:37:52;;;;;;;;;;;;;;;;;;4991416;28;19936;-45
2023/08/19 15:40:18;;;;;;;;;;;;;;;;;;4991245;28;20393;-48
2023/08/19 15:42:44;;;;;;;;;;;;;;;;;;4991901;28;19918;-47
2023/08/19 15:45:10;;;;;;;;;;;;;;;;;;4991313;28;19956;-48
2023/08/19 15:47:35;;;;;;;;;;;;;;;;;;4991207;28;19910;-47
2023/08/19 15:50:01;;;;;;;;;;;;;;;;;;4990817;28;19965;-46
2023/08/19 15:52:27;;;;;;;;;;;;;;;;;;4991125;28;20025;-44
2023/08/19 15:54:53;;;;;;;;;;;;;;;;;;4991353;28;19917;-45
2023/08/19 15:57:19;;;;;;;;;;;;;;;;;;4990958;28;20066;-45
2023/08/19 15:59:45;;;;;;;;;;;;;;;;;;4991330;28;19965;-45
2023/08/19 16:02:11;;;;;;;;;;;;;;;;;;4991125;28;19910;-44
2023/08/19 16:04:37;;;;;;;;;;;;;;;;;;4990800;28;19913;-47
2023/08/19 16:07:04;;;;;;;;;;;;;;;;;;4991128;28;19945;-45
2023/08/19 16:09:30;;;;;;;;;;;;;;;;;;4989741;28;19910;-46
2023/08/19 16:11:56;;;;;;;;;;;;;;;;;;4990857;28;19920;-48
2023/08/19 16:14:22;;;;;;;;;;;;;;;;;;4990707;28;20432;-47
2023/08/19 16:16:48;;;;;;;;;;;;;;;;;;4991129;28;20400;-48
2023/08/19 16:19:13;;;;;;;;;;;;;;;;;;4990441;28;19918;-45
2023/08/19 16:21:39;;;;;;;;;;;;;;;;;;4990765;28;19914;-47
2023/08/19 16:24:05;;;;;;;;;;;;;;;;;;4990727;28;20383;-48
2023/08/19 16:26:31;;;;;;;;;;;;;;;;;;4990537;28;19917;-49
2023/08/19 16:28:57;;;;;;;;;;;;;;;;;;4990288;28;19914;-46
2023/08/19 16:31:23;;;;;;;;;;;;;;;;;;4990838;28;20045;-45
2023/08/19 16:33:49;;;;;;;;;;;;;;;;;;4991468;28;19921;-47
2023/08/19 16:36:15;;;;;;;;;;;;;;;;;;4991249;28;19917;-47
2023/08/19 16:38:40;;;;;;;;;;;;;;;;;;4990093;28;19913;-49
2023/08/19 16:41:08;;;;;;;;;;;;;;;;;;4990375;28;20020;-49
2023/08/19 16:43:33;;;;;;;;;;;;;;;;;;4990214;28;19952;-46
2023/08/19 16:45:59;;;;;;;;;;;;;;;;;;4990368;28;19945;-45
2023/08/19 16:48:25;;;;;;;;;;;;;;;;;;4990069;28;20284;-48
2023/08/19 16:50:51;;;;;;;;;;;;;;;;;;4990033;28;19909;-43
2023/08/19 16:53:17;;;;;;;;;;;;;;;;;;4990503;28;19917;-47
2023/08/19 16:55:43;;;;;;;;;;;;;;;;;;4990157;28;19945;-48
2023/08/19 16:58:09;;;;;;;;;;;;;;;;;;4990016;28;19909;-48
2023/08/19 17:00:35;;;;;;;;;;;;;;;;;;4989634;28;19910;-46
2023/08/19 17:03:01;;;;;;;;;;;;;;;;;;4989967;28;19921;-45
2023/08/19 17:05:27;;;;;;;;;;;;;;;;;;4989545;28;19914;-47
2023/08/19 17:07:53;;;;;;;;;;;;;;;;;;4989722;28;19933;-46
2023/08/19 17:10:19;;;;;;;;;;;;;;;;;;4988781;28;19948;-46
2023/08/19 17:12:45;;;;;;;;;;;;;;;;;;4987264;28;20340;-47
2023/08/19 17:15:11;;;;;;;;;;;;;;;;;;4990003;28;19990;-49
2023/08/19 17:17:36;;;;;;;;;;;;;;;;;;4988390;28;19918;-49
2023/08/19 17:20:03;;;;;;;;;;;;;;;;;;4987909;28;19933;-48
2023/08/19 17:22:29;;;;;;;;;;;;;;;;;;4989423;28;19914;-47
2023/08/19 17:24:55;;;;;;;;;;;;;;;;;;4990578;28;19917;-48
2023/08/19 17:27:21;;;;;;;;;;;;;;;;;;4989823;28;19961;-47
2023/08/19 17:29:47;;;;;;;;;;;;;;;;;;4989613;28;20304;-45
2023/08/19 17:32:13;;;;;;;;;;;;;;;;;;4987334;28;19918;-46
2023/08/19 17:34:39;;;;;;;;;;;;;;;;;;4988879;28;20013;-45
2023/08/19 17:37:04;;;;;;;;;;;;;;;;;;4988358;28;19920;-46
2023/08/19 17:39:30;;;;;;;;;;;;;;;;;;4988963;28;19927;-47
2023/08/19 17:41:56;;;;;;;;;;;;;;;;;;4989105;28;20004;-46
2023/08/19 17:44:22;;;;;;;;;;;;;;;;;;4989891;28;20000;-48
2023/08/19 17:46:48;;;;;;;;;;;;;;;;;;4988217;28;19910;-51
2023/08/19 17:49:14;;;;;;;;;;;;;;;;;;4985432;28;20009;-46
2023/08/19 17:51:40;;;;;;;;;;;;;;;;;;4987935;28;19914;-48
2023/08/19 17:54:08;;;;;;;;;;;;;;;;;;4985584;28;19917;-49
2023/08/19 17:56:34;;;;;;;;;;;;;;;;;;4977752;28;19984;-46
2023/08/19 17:59:05;;;;;;;;;;;;;;;;;;4968201;28;20370;-49
2023/08/19 18:01:31;;;;;;;;;;;;;;;;;;4982828;28;19952;-45
2023/08/19 18:03:57;;;;;;;;;;;;;;;;;;4981440;28;19921;-45
2023/08/19 18:06:24;;;;;;;;;;;;;;;;;;4984394;28;19918;-48
2023/08/19 18:08:50;;;;;;;;;;;;;;;;;;4980412;28;20281;-46
2023/08/19 18:11:16;;;;;;;;;;;;;;;;;;4981587;28;19914;-44
2023/08/19 18:13:42;;;;;;;;;;;;;;;;;;4982511;28;20000;-46
2023/08/19 18:16:10;;;;;;;;;;;;;;;;;;4986307;28;20457;-49
2023/08/19 18:18:36;;;;;;;;;;;;;;;;;;4983687;28;19922;-45
2023/08/19 18:21:02;;;;;;;;;;;;;;;;;;4983640;28;19930;-46
2023/08/19 18:23:27;;;;;;;;;;;;;;;;;;4985424;28;19936;-47
2023/08/19 18:25:53;;;;;;;;;;;;;;;;;;4982849;28;19914;-47
2023/08/19 18:28:19;;;;;;;;;;;;;;;;;;4979935;28;19922;-49
2023/08/19 18:30:47;;;;;;;;;;;;;;;;;;4983206;28;19922;-49
2023/08/19 18:33:13;;;;;;;;;;;;;;;;;;4984152;28;20016;-49
2023/08/19 18:35:40;;;;;;;;;;;;;;;;;;4985500;28;20413;-49
2023/08/19 18:38:06;;;;;;;;;;;;;;;;;;4984633;28;19953;-46
2023/08/19 18:40:33;;;;;;;;;;;;;;;;;;4983924;28;19992;-45
2023/08/19 18:42:59;;;;;;;;;;;;;;;;;;4986233;28;20017;-45
2023/08/19 18:45:24;;;;;;;;;;;;;;;;;;4984978;28;20611;-44
2023/08/19 18:47:50;;;;;;;;;;;;;;;;;;4985493;28;19936;-49
2023/08/19 18:50:16;;;;;;;;;;;;;;;;;;4984329;28;19925;-48
2023/08/19 18:52:42;;;;;;;;;;;;;;;;;;4983793;28;20419;-46
2023/08/19 18:55:08;;;;;;;;;;;;;;;;;;4983325;28;19928;-46
2023/08/19 18:57:34;;;;;;;;;;;;;;;;;;4984298;28;20408;-48
2023/08/19 19:00:00;;;;;;;;;;;;;;;;;;4986032;28;19968;-47
2023/08/19 19:02:26;;;;;;;;;;;;;;;;;;4986633;28;19992;-45
2023/08/19 19:04:52;;;;;;;;;;;;;;;;;;4986888;28;20397;-47
2023/08/19 19:07:17;;;;;;;;;;;;;;;;;;4986181;28;20368;-45
2023/08/19 19:09:46;;;;;;;;;;;;;;;;;;4985079;28;19918;-45
2023/08/19 19:12:11;;;;;;;;;;;;;;;;;;4983928;28;19969;-48
2023/08/19 19:14:37;;;;;;;;;;;;;;;;;;4984090;28;19917;-49
2023/08/19 19:17:03;;;;;;;;;;;;;;;;;;4980543;28;19914;-47
2023/08/19 19:19:29;;;;;;;;;;;;;;;;;;4983790;28;19918;-46
2023/08/19 19:21:55;;;;;;;;;;;;;;;;;;4986411;28;19918;-44
2023/08/19 19:24:21;;;;;;;;;;;;;;;;;;4983454;28;19969;-47
2023/08/19 19:26:47;;;;;;;;;;;;;;;;;;4982972;28;20356;-47
2023/08/19 19:29:13;;;;;;;;;;;;;;;;;;4983890;28;19928;-48
2023/08/19 19:31:39;;;;;;;;;;;;;;;;;;4985299;28;20377;-48
2023/08/19 19:34:05;;;;;;;;;;;;;;;;;;4983599;28;19976;-46
2023/08/19 19:36:32;;;;;;;;;;;;;;;;;;4984964;28;20396;-47
2023/08/19 19:38:58;;;;;;;;;;;;;;;;;;4984936;28;19914;-47
2023/08/19 19:41:24;;;;;;;;;;;;;;;;;;4984626;28;19963;-48
2023/08/19 19:43:50;;;;;;;;;;;;;;;;;;4987677;28;19921;-45
2023/08/19 19:46:16;;;;;;;;;;;;;;;;;;4989903;28;19925;-46
2023/08/19 19:48:41;;;;;;;;;;;;;;;;;;4985895;28;20434;-47
2023/08/19 19:51:07;;;;;;;;;;;;;;;;;;4989134;28;20003;-47
2023/08/19 19:53:33;;;;;;;;;;;;;;;;;;4990040;28;20300;-48
2023/08/19 19:55:59;;;;;;;;;;;;;;;;;;4987141;28;19921;-46
2023/08/19 19:58:25;;;;;;;;;;;;;;;;;;4988827;28;20311;-47
2023/08/19 20:00:51;;;;;;;;;;;;;;;;;;4987253;28;20016;-46
2023/08/19 20:03:17;;;;;;;;;;;;;;;;;;4988909;28;20012;-45
2023/08/19 20:05:43;;;;;;;;;;;;;;;;;;4985005;28;20130;-47
2023/08/19 20:08:09;;;;;;;;;;;;;;;;;;4989102;28;19910;-46
2023/08/19 20:10:35;;;;;;;;;;;;;;;;;;4988628;28;20000;-45
2023/08/19 20:13:01;;;;;;;;;;;;;;;;;;4988747;28;20015;-45
2023/08/19 20:15:27;;;;;;;;;;;;;;;;;;4987947;28;20022;-47
2023/08/19 20:17:52;;;;;;;;;;;;;;;;;;4985390;28;20000;-49
2023/08/19 20:20:18;;;;;;;;;;;;;;;;;;4987021;28;19944;-44
2023/08/19 20:22:44;;;;;;;;;;;;;;;;;;4987277;28;19914;-47
2023/08/19 20:25:11;;;;;;;;;;;;;;;;;;4985012;28;20471;-45
2023/08/19 20:27:36;;;;;;;;;;;;;;;;;;4987060;28;20277;-46
2023/08/19 20:30:02;;;;;;;;;;;;;;;;;;4986718;28;19969;-47
2023/08/19 20:32:28;;;;;;;;;;;;;;;;;;4986852;28;19934;-45
2023/08/19 20:34:54;;;;;;;;;;;;;;;;;;4987123;28;20340;-47
2023/08/19 20:37:20;;;;;;;;;;;;;;;;;;4988095;28;19921;-44
2023/08/19 20:39:46;;;;;;;;;;;;;;;;;;4987553;28;19954;-45
2023/08/19 20:42:12;;;;;;;;;;;;;;;;;;4988706;28;20336;-47
2023/08/19 20:44:38;;;;;;;;;;;;;;;;;;4988049;28;19921;-47
2023/08/19 20:47:04;;;;;;;;;;;;;;;;;;4987381;28;20447;-45
2023/08/19 20:49:30;;;;;;;;;;;;;;;;;;4988005;28;20388;-47
2023/08/19 20:51:56;;;;;;;;;;;;;;;;;;4988199;28;19914;-47
2023/08/19 20:54:22;;;;;;;;;;;;;;;;;;4986532;28;20028;-45
2023/08/19 20:56:48;;;;;;;;;;;;;;;;;;4987390;28;20008;-48
2023/08/19 20:59:14;;;;;;;;;;;;;;;;;;4985407;28;19929;-47
2023/08/19 21:01:40;;;;;;;;;;;;;;;;;;4986183;28;19913;-48
2023/08/19 21:04:05;;;;;;;;;;;;;;;;;;4986270;28;19971;-45
2023/08/19 21:06:31;;;;;;;;;;;;;;;;;;4984999;28;19921;-45
2023/08/19 21:08:57;;;;;;;;;;;;;;;;;;4984643;28;19983;-45
2023/08/19 21:11:23;;;;;;;;;;;;;;;;;;4986516;28;19997;-46
2023/08/19 21:13:50;;;;;;;;;;;;;;;;;;4986281;28;19925;-48
2023/08/19 21:16:16;;;;;;;;;;;;;;;;;;4985377;28;19914;-44
2023/08/19 21:18:42;;;;;;;;;;;;;;;;;;4984490;28;19926;-48
2023/08/19 21:21:08;;;;;;;;;;;;;;;;;;4983539;28;19914;-49
2023/08/19 21:23:33;;;;;;;;;;;;;;;;;;4983638;28;19985;-47
2023/08/19 21:25:59;;;;;;;;;;;;;;;;;;4982687;28;21845;-49
2023/08/19 21:28:25;;;;;;;;;;;;;;;;;;4985985;28;19917;-47
2023/08/19 21:30:51;;;;;;;;;;;;;;;;;;4987234;28;20361;-46
2023/08/19 21:33:17;;;;;;;;;;;;;;;;;;4987051;28;19922;-45
2023/08/19 21:35:43;;;;;;;;;;;;;;;;;;4989261;28;19972;-49
2023/08/19 21:38:09;;;;;;;;;;;;;;;;;;4989325;28;19917;-46
2023/08/19 21:40:35;;;;;;;;;;;;;;;;;;4989229;28;20285;-45
2023/08/19 21:43:00;;;;;;;;;;;;;;;;;;4988784;28;19964;-47
2023/08/19 21:45:26;;;;;;;;;;;;;;;;;;4989553;28;20226;-47
2023/08/19 21:47:52;;;;;;;;;;;;;;;;;;4988974;28;19916;-47
2023/08/19 21:50:20;;;;;;;;;;;;;;;;;;4988969;28;19937;-48
2023/08/19 21:52:45;;;;;;;;;;;;;;;;;;4988933;28;20005;-46
2023/08/19 21:55:11;;;;;;;;;;;;;;;;;;4988953;28;20016;-45